sensor_id;sensor_type;location;lat;lon;timestamp;pressure;altitude;pressure_sealevel;temperature;humidity
73242;BME280;65659;49.234;-2.094;2023-03-23T00:00:36;99047.26;;;21.27;34.72
73242;BME280;65659;49.234;-2.094;2023-03-23T00:03:01;99037.41;;;21.38;34.52
73242;BME280;65659;49.234;-2.094;2023-03-23T00:05:26;99050.85;;;21.10;34.53
73242;BME280;65659;49.234;-2.094;2023-03-23T00:07:52;99063.07;;;21.04;34.49
73242;BME280;65659;49.234;-2.094;2023-03-23T00:10:18;99054.28;;;20.93;34.97
73242;BME280;65659;49.234;-2.094;2023-03-23T00:12:44;99058.71;;;20.99;34.76
73242;BME280;65659;49.234;-2.094;2023-03-23T00:15:10;99062.64;;;20.86;35.13
73242;BME280;65659;49.234;-2.094;2023-03-23T00:17:35;99054.11;;;20.56;35.64
73242;BME280;65659;49.234;-2.094;2023-03-23T00:20:02;99057.74;;;20.58;36.09
73242;BME280;65659;49.234;-2.094;2023-03-23T00:22:28;99060.01;;;20.25;36.18
73242;BME280;65659;49.234;-2.094;2023-03-23T00:24:53;99055.04;;;20.44;36.27
73242;BME280;65659;49.234;-2.094;2023-03-23T00:27:19;99062.37;;;20.56;36.27
73242;BME280;65659;49.234;-2.094;2023-03-23T00:29:44;99051.82;;;20.08;36.29
73242;BME280;65659;49.234;-2.094;2023-03-23T00:32:11;99055.66;;;20.56;36.06
73242;BME280;65659;49.234;-2.094;2023-03-23T00:34:36;99050.14;;;20.57;36.05
73242;BME280;65659;49.234;-2.094;2023-03-23T00:37:01;99049.36;;;20.42;35.79
73242;BME280;65659;49.234;-2.094;2023-03-23T00:39:28;99047.80;;;20.68;35.76
73242;BME280;65659;49.234;-2.094;2023-03-23T00:41:54;99049.82;;;20.75;35.79
73242;BME280;65659;49.234;-2.094;2023-03-23T00:44:18;99049.84;;;20.64;35.63
73242;BME280;65659;49.234;-2.094;2023-03-23T00:46:45;99049.58;;;20.61;35.69
73242;BME280;65659;49.234;-2.094;2023-03-23T00:49:11;99045.77;;;20.89;35.62
73242;BME280;65659;49.234;-2.094;2023-03-23T00:51:36;99043.86;;;20.56;35.77
73242;BME280;65659;49.234;-2.094;2023-03-23T00:54:01;99043.97;;;20.93;35.63
73242;BME280;65659;49.234;-2.094;2023-03-23T00:56:27;99050.20;;;20.72;35.59
73242;BME280;65659;49.234;-2.094;2023-03-23T00:58:53;99050.95;;;20.81;35.49
73242;BME280;65659;49.234;-2.094;2023-03-23T01:01:19;99048.03;;;20.72;35.56
73242;BME280;65659;49.234;-2.094;2023-03-23T01:03:45;99043.82;;;20.68;35.57
73242;BME280;65659;49.234;-2.094;2023-03-23T01:06:11;99043.23;;;20.67;35.64
73242;BME280;65659;49.234;-2.094;2023-03-23T01:08:36;99045.34;;;20.78;35.58
73242;BME280;65659;49.234;-2.094;2023-03-23T01:11:04;99050.30;;;21.03;35.55
73242;BME280;65659;49.234;-2.094;2023-03-23T01:13:28;99056.29;;;20.75;35.57
73242;BME280;65659;49.234;-2.094;2023-03-23T01:15:54;99060.33;;;20.70;35.63
73242;BME280;65659;49.234;-2.094;2023-03-23T01:18:19;99056.87;;;20.69;35.64
73242;BME280;65659;49.234;-2.094;2023-03-23T01:20:45;99063.10;;;20.80;35.52
73242;BME280;65659;49.234;-2.094;2023-03-23T01:23:11;99062.75;;;20.84;35.46
73242;BME280;65659;49.234;-2.094;2023-03-23T01:25:37;99063.56;;;20.91;35.36
73242;BME280;65659;49.234;-2.094;2023-03-23T01:28:03;99052.51;;;21.23;35.28
73242;BME280;65659;49.234;-2.094;2023-03-23T01:30:29;99050.91;;;21.04;35.17
73242;BME280;65659;49.234;-2.094;2023-03-23T01:32:55;99045.40;;;21.06;35.16
73242;BME280;65659;49.234;-2.094;2023-03-23T01:35:20;99034.25;;;21.08;35.11
73242;BME280;65659;49.234;-2.094;2023-03-23T01:37:46;99038.49;;;20.91;35.00
73242;BME280;65659;49.234;-2.094;2023-03-23T01:40:12;99038.72;;;20.93;34.98
73242;BME280;65659;49.234;-2.094;2023-03-23T01:42:38;99039.81;;;21.21;34.92
73242;BME280;65659;49.234;-2.094;2023-03-23T01:45:23;99039.94;;;21.22;34.87
73242;BME280;65659;49.234;-2.094;2023-03-23T01:47:29;99039.39;;;21.29;34.79
73242;BME280;65659;49.234;-2.094;2023-03-23T01:49:55;99040.70;;;21.30;34.78
73242;BME280;65659;49.234;-2.094;2023-03-23T01:52:23;99043.02;;;21.34;34.69
73242;BME280;65659;49.234;-2.094;2023-03-23T01:54:47;99036.05;;;21.06;34.77
73242;BME280;65659;49.234;-2.094;2023-03-23T01:57:14;99040.25;;;20.83;34.74
73242;BME280;65659;49.234;-2.094;2023-03-23T01:59:38;99040.92;;;21.37;34.68
73242;BME280;65659;49.234;-2.094;2023-03-23T02:02:04;99042.69;;;20.91;34.60
73242;BME280;65659;49.234;-2.094;2023-03-23T02:04:30;99046.06;;;21.42;34.57
73242;BME280;65659;49.234;-2.094;2023-03-23T02:06:56;99046.52;;;21.17;34.60
73242;BME280;65659;49.234;-2.094;2023-03-23T02:09:21;99050.73;;;21.43;34.59
73242;BME280;65659;49.234;-2.094;2023-03-23T02:11:47;99050.22;;;21.43;34.57
73242;BME280;65659;49.234;-2.094;2023-03-23T02:14:13;99047.95;;;21.37;34.63
73242;BME280;65659;49.234;-2.094;2023-03-23T02:16:44;99041.19;;;20.93;34.58
73242;BME280;65659;49.234;-2.094;2023-03-23T02:19:18;99038.05;;;20.95;34.59
73242;BME280;65659;49.234;-2.094;2023-03-23T02:26:34;99036.45;;;21.02;34.45
73242;BME280;65659;49.234;-2.094;2023-03-23T02:29:06;99036.85;;;21.03;34.43
73242;BME280;65659;49.234;-2.094;2023-03-23T02:31:22;99031.51;;;21.28;34.45
73242;BME280;65659;49.234;-2.094;2023-03-23T02:33:45;99040.55;;;21.23;34.48
73242;BME280;65659;49.234;-2.094;2023-03-23T02:36:11;99036.95;;;21.21;34.49
73242;BME280;65659;49.234;-2.094;2023-03-23T02:38:32;99031.39;;;21.44;34.48
73242;BME280;65659;49.234;-2.094;2023-03-23T02:40:56;99027.76;;;21.45;34.46
73242;BME280;65659;49.234;-2.094;2023-03-23T02:43:24;99024.99;;;21.00;34.40
73242;BME280;65659;49.234;-2.094;2023-03-23T02:45:48;99019.67;;;21.21;34.47
73242;BME280;65659;49.234;-2.094;2023-03-23T02:48:15;99024.44;;;21.23;34.44
73242;BME280;65659;49.234;-2.094;2023-03-23T02:50:41;99025.60;;;21.42;34.48
73242;BME280;65659;49.234;-2.094;2023-03-23T02:53:07;99027.69;;;21.20;34.45
73242;BME280;65659;49.234;-2.094;2023-03-23T02:55:31;99026.75;;;21.17;34.48
73242;BME280;65659;49.234;-2.094;2023-03-23T02:57:55;99022.97;;;21.44;34.45
73242;BME280;65659;49.234;-2.094;2023-03-23T03:00:21;99024.03;;;21.45;34.43
73242;BME280;65659;49.234;-2.094;2023-03-23T03:02:49;99022.15;;;21.08;34.48
73242;BME280;65659;49.234;-2.094;2023-03-23T03:05:19;99021.26;;;21.07;34.55
73242;BME280;65659;49.234;-2.094;2023-03-23T03:07:49;99025.69;;;21.21;34.64
73242;BME280;65659;49.234;-2.094;2023-03-23T03:10:09;99030.34;;;21.26;34.63
73242;BME280;65659;49.234;-2.094;2023-03-23T03:12:35;99027.34;;;21.29;34.58
73242;BME280;65659;49.234;-2.094;2023-03-23T03:15:00;99026.54;;;21.08;34.53
73242;BME280;65659;49.234;-2.094;2023-03-23T03:17:24;99033.25;;;21.27;34.59
73242;BME280;65659;49.234;-2.094;2023-03-23T03:19:50;99030.26;;;21.29;34.60
73242;BME280;65659;49.234;-2.094;2023-03-23T03:22:14;99035.63;;;21.28;34.61
73242;BME280;65659;49.234;-2.094;2023-03-23T03:24:40;99035.86;;;21.22;34.68
73242;BME280;65659;49.234;-2.094;2023-03-23T03:27:09;99044.76;;;21.22;34.58
73242;BME280;65659;49.234;-2.094;2023-03-23T03:29:33;99042.36;;;21.25;34.63
73242;BME280;65659;49.234;-2.094;2023-03-23T03:31:58;99046.62;;;20.96;34.58
73242;BME280;65659;49.234;-2.094;2023-03-23T03:34:22;99043.64;;;21.08;34.77
73242;BME280;65659;49.234;-2.094;2023-03-23T03:36:49;99042.38;;;21.15;34.71
73242;BME280;65659;49.234;-2.094;2023-03-23T03:39:14;99050.98;;;21.08;34.75
73242;BME280;65659;49.234;-2.094;2023-03-23T03:41:39;99054.14;;;21.15;34.75
73242;BME280;65659;49.234;-2.094;2023-03-23T03:44:06;99059.62;;;20.94;34.71
73242;BME280;65659;49.234;-2.094;2023-03-23T03:46:31;99048.86;;;21.21;34.66
73242;BME280;65659;49.234;-2.094;2023-03-23T03:48:57;99047.94;;;21.22;34.66
73242;BME280;65659;49.234;-2.094;2023-03-23T03:51:22;99055.53;;;21.22;34.63
73242;BME280;65659;49.234;-2.094;2023-03-23T03:53:48;99051.90;;;21.21;34.63
73242;BME280;65659;49.234;-2.094;2023-03-23T03:56:14;99047.37;;;21.00;34.62
73242;BME280;65659;49.234;-2.094;2023-03-23T03:58:40;99042.49;;;21.27;34.59
73242;BME280;65659;49.234;-2.094;2023-03-23T04:01:05;99037.09;;;21.27;34.56
73242;BME280;65659;49.234;-2.094;2023-03-23T04:03:31;99034.36;;;21.25;34.58
73242;BME280;65659;49.234;-2.094;2023-03-23T04:05:57;99027.98;;;21.26;34.59
73242;BME280;65659;49.234;-2.094;2023-03-23T04:08:23;99033.18;;;21.27;34.52
73242;BME280;65659;49.234;-2.094;2023-03-23T04:10:49;99032.70;;;20.97;34.62
73242;BME280;65659;49.234;-2.094;2023-03-23T04:13:14;99027.85;;;21.26;34.56
73242;BME280;65659;49.234;-2.094;2023-03-23T04:15:39;99031.69;;;21.03;34.56
73242;BME280;65659;49.234;-2.094;2023-03-23T04:18:05;99032.02;;;21.28;34.53
73242;BME280;65659;49.234;-2.094;2023-03-23T04:20:31;99036.43;;;21.29;34.52
73242;BME280;65659;49.234;-2.094;2023-03-23T04:22:56;99039.02;;;21.31;34.47
73242;BME280;65659;49.234;-2.094;2023-03-23T04:25:23;99038.14;;;21.27;34.53
73242;BME280;65659;49.234;-2.094;2023-03-23T04:27:49;99040.19;;;21.30;34.48
73242;BME280;65659;49.234;-2.094;2023-03-23T04:30:14;99039.28;;;21.06;34.48
73242;BME280;65659;49.234;-2.094;2023-03-23T04:32:40;99037.09;;;21.10;34.42
73242;BME280;65659;49.234;-2.094;2023-03-23T04:35:06;99035.32;;;21.07;34.45
73242;BME280;65659;49.234;-2.094;2023-03-23T04:37:31;99034.52;;;21.32;34.42
73242;BME280;65659;49.234;-2.094;2023-03-23T04:39:58;99039.88;;;21.32;34.43
73242;BME280;65659;49.234;-2.094;2023-03-23T04:42:23;99042.22;;;21.29;34.45
73242;BME280;65659;49.234;-2.094;2023-03-23T04:44:49;99042.72;;;21.31;34.40
73242;BME280;65659;49.234;-2.094;2023-03-23T04:47:14;99046.56;;;21.06;34.44
73242;BME280;65659;49.234;-2.094;2023-03-23T04:49:40;99034.88;;;21.30;34.42
73242;BME280;65659;49.234;-2.094;2023-03-23T04:52:06;99033.72;;;21.27;34.46
73242;BME280;65659;49.234;-2.094;2023-03-23T04:54:32;99033.95;;;21.30;34.42
73242;BME280;65659;49.234;-2.094;2023-03-23T04:56:57;99038.12;;;21.29;34.44
73242;BME280;65659;49.234;-2.094;2023-03-23T04:59:23;99044.84;;;21.50;34.46
73242;BME280;65659;49.234;-2.094;2023-03-23T05:01:49;99049.92;;;21.28;34.40
73242;BME280;65659;49.234;-2.094;2023-03-23T05:04:14;99051.16;;;21.04;34.39
73242;BME280;65659;49.234;-2.094;2023-03-23T05:06:40;99052.48;;;21.21;34.47
73242;BME280;65659;49.234;-2.094;2023-03-23T05:09:06;99060.68;;;21.20;34.48
73242;BME280;65659;49.234;-2.094;2023-03-23T05:11:32;99063.03;;;21.21;34.49
73242;BME280;65659;49.234;-2.094;2023-03-23T05:13:58;99066.84;;;21.23;34.49
73242;BME280;65659;49.234;-2.094;2023-03-23T05:16:23;99066.96;;;21.00;34.48
73242;BME280;65659;49.234;-2.094;2023-03-23T05:18:49;99066.94;;;21.24;34.46
73242;BME280;65659;49.234;-2.094;2023-03-23T05:21:15;99073.78;;;21.02;34.46
73242;BME280;65659;49.234;-2.094;2023-03-23T05:23:41;99068.62;;;21.03;34.44
73242;BME280;65659;49.234;-2.094;2023-03-23T05:26:08;99075.39;;;21.17;34.51
73242;BME280;65659;49.234;-2.094;2023-03-23T05:28:33;99074.88;;;21.25;34.42
73242;BME280;65659;49.234;-2.094;2023-03-23T05:30:58;99075.45;;;21.01;34.43
73242;BME280;65659;49.234;-2.094;2023-03-23T05:33:24;99076.28;;;21.29;34.37
73242;BME280;65659;49.234;-2.094;2023-03-23T05:35:50;99075.06;;;21.05;34.38
73242;BME280;65659;49.234;-2.094;2023-03-23T05:38:16;99074.43;;;21.26;34.42
73242;BME280;65659;49.234;-2.094;2023-03-23T05:40:42;99073.35;;;21.30;34.35
73242;BME280;65659;49.234;-2.094;2023-03-23T05:43:07;99074.98;;;21.02;34.40
73242;BME280;65659;49.234;-2.094;2023-03-23T05:45:33;99072.75;;;21.27;34.38
73242;BME280;65659;49.234;-2.094;2023-03-23T05:47:59;99073.72;;;21.31;34.33
73242;BME280;65659;49.234;-2.094;2023-03-23T05:50:25;99064.45;;;21.30;34.31
73242;BME280;65659;49.234;-2.094;2023-03-23T05:52:51;99058.58;;;21.10;34.27
73242;BME280;65659;49.234;-2.094;2023-03-23T05:55:16;99066.03;;;21.34;34.25
73242;BME280;65659;49.234;-2.094;2023-03-23T05:57:42;99068.20;;;21.09;34.24
73242;BME280;65659;49.234;-2.094;2023-03-23T06:00:09;99073.84;;;21.33;34.25
73242;BME280;65659;49.234;-2.094;2023-03-23T06:02:33;99076.86;;;21.33;34.24
73242;BME280;65659;49.234;-2.094;2023-03-23T06:04:59;99076.42;;;21.08;34.27
73242;BME280;65659;49.234;-2.094;2023-03-23T06:07:25;99080.59;;;21.30;34.24
73242;BME280;65659;49.234;-2.094;2023-03-23T06:09:51;99078.33;;;21.31;34.25
73242;BME280;65659;49.234;-2.094;2023-03-23T06:12:17;99084.82;;;21.06;34.27
73242;BME280;65659;49.234;-2.094;2023-03-23T06:14:42;99084.85;;;21.29;34.29
73242;BME280;65659;49.234;-2.094;2023-03-23T06:17:08;99090.26;;;21.00;34.32
73242;BME280;65659;49.234;-2.094;2023-03-23T06:19:34;99097.38;;;21.31;34.25
73242;BME280;65659;49.234;-2.094;2023-03-23T06:22:00;99098.45;;;21.34;34.22
73242;BME280;65659;49.234;-2.094;2023-03-23T06:24:25;99103.62;;;21.18;34.13
73242;BME280;65659;49.234;-2.094;2023-03-23T06:26:51;99106.18;;;21.46;34.09
73242;BME280;65659;49.234;-2.094;2023-03-23T06:29:17;99112.58;;;21.22;34.10
73242;BME280;65659;49.234;-2.094;2023-03-23T06:31:45;99118.91;;;21.44;34.09
73242;BME280;65659;49.234;-2.094;2023-03-23T06:34:09;99123.91;;;20.91;34.18
73242;BME280;65659;49.234;-2.094;2023-03-23T06:36:34;99127.75;;;21.42;34.13
73242;BME280;65659;49.234;-2.094;2023-03-23T06:39:00;99123.43;;;20.97;34.11
73242;BME280;65659;49.234;-2.094;2023-03-23T06:41:26;99120.18;;;21.48;34.07
73242;BME280;65659;49.234;-2.094;2023-03-23T06:43:52;99117.00;;;21.06;34.00
73242;BME280;65659;49.234;-2.094;2023-03-23T06:46:17;99113.58;;;21.36;33.92
73242;BME280;65659;49.234;-2.094;2023-03-23T06:48:43;99119.03;;;21.12;33.92
73242;BME280;65659;49.234;-2.094;2023-03-23T06:51:09;99119.67;;;21.18;33.83
73242;BME280;65659;49.234;-2.094;2023-03-23T06:53:35;99119.38;;;21.46;33.79
73242;BME280;65659;49.234;-2.094;2023-03-23T06:56:00;99119.74;;;21.24;33.77
73242;BME280;65659;49.234;-2.094;2023-03-23T06:58:26;99119.38;;;21.25;33.74
73242;BME280;65659;49.234;-2.094;2023-03-23T07:00:54;99118.05;;;21.31;33.68
73242;BME280;65659;49.234;-2.094;2023-03-23T07:03:18;99112.82;;;21.37;33.59
73242;BME280;65659;49.234;-2.094;2023-03-23T07:05:46;99108.87;;;21.43;33.50
73242;BME280;65659;49.234;-2.094;2023-03-23T07:08:09;99112.41;;;21.49;33.43
73242;BME280;65659;49.234;-2.094;2023-03-23T07:10:35;99111.60;;;21.32;33.30
73242;BME280;65659;49.234;-2.094;2023-03-23T07:13:01;99108.49;;;21.55;33.31
73242;BME280;65659;49.234;-2.094;2023-03-23T07:15:27;99106.09;;;21.59;33.26
73242;BME280;65659;49.234;-2.094;2023-03-23T07:17:53;99111.51;;;21.63;33.20
73242;BME280;65659;49.234;-2.094;2023-03-23T07:20:19;99108.31;;;21.16;33.19
73242;BME280;65659;49.234;-2.094;2023-03-23T07:22:44;99110.00;;;21.76;33.05
73242;BME280;65659;49.234;-2.094;2023-03-23T07:25:10;99108.11;;;21.40;32.88
73242;BME280;65659;49.234;-2.094;2023-03-23T07:27:36;99103.45;;;22.01;32.70
73242;BME280;65659;49.234;-2.094;2023-03-23T07:30:02;99103.44;;;21.85;32.62
73242;BME280;65659;49.234;-2.094;2023-03-23T07:32:27;99103.62;;;21.66;32.53
73242;BME280;65659;49.234;-2.094;2023-03-23T07:34:53;99102.88;;;21.74;32.42
73242;BME280;65659;49.234;-2.094;2023-03-23T07:37:19;99103.44;;;21.60;32.28
73242;BME280;65659;49.234;-2.094;2023-03-23T07:39:45;99097.63;;;21.95;32.14
73242;BME280;65659;49.234;-2.094;2023-03-23T07:42:10;99093.56;;;21.64;31.93
73242;BME280;65659;49.234;-2.094;2023-03-23T07:44:36;99099.34;;;21.82;31.70
73242;BME280;65659;49.234;-2.094;2023-03-23T07:47:02;99098.53;;;21.91;31.58
73242;BME280;65659;49.234;-2.094;2023-03-23T07:49:28;99102.45;;;21.75;31.20
73242;BME280;65659;49.234;-2.094;2023-03-23T07:51:53;99100.39;;;21.92;30.96
73242;BME280;65659;49.234;-2.094;2023-03-23T07:54:19;99099.20;;;21.97;30.88
73242;BME280;65659;49.234;-2.094;2023-03-23T07:56:45;99107.95;;;21.88;30.72
73242;BME280;65659;49.234;-2.094;2023-03-23T07:59:11;99105.59;;;22.00;30.61
73242;BME280;65659;49.234;-2.094;2023-03-23T08:01:36;99107.74;;;21.94;30.35
73242;BME280;65659;49.234;-2.094;2023-03-23T08:04:02;99114.24;;;22.13;30.13
73242;BME280;65659;49.234;-2.094;2023-03-23T08:06:28;99112.82;;;22.16;30.09
73242;BME280;65659;49.234;-2.094;2023-03-23T08:08:54;99108.38;;;22.30;29.92
73242;BME280;65659;49.234;-2.094;2023-03-23T08:11:20;99109.17;;;22.32;29.89
73242;BME280;65659;49.234;-2.094;2023-03-23T08:13:45;99105.88;;;21.93;29.80
73242;BME280;65659;49.234;-2.094;2023-03-23T08:16:12;99102.09;;;22.06;29.64
73242;BME280;65659;49.234;-2.094;2023-03-23T08:18:37;99105.98;;;22.65;29.48
73242;BME280;65659;49.234;-2.094;2023-03-23T08:21:03;99110.04;;;22.22;29.45
73242;BME280;65659;49.234;-2.094;2023-03-23T08:23:28;99107.37;;;21.80;29.35
73242;BME280;65659;49.234;-2.094;2023-03-23T08:25:54;99106.54;;;21.92;29.20
73242;BME280;65659;49.234;-2.094;2023-03-23T08:28:20;99101.80;;;22.52;29.06
73242;BME280;65659;49.234;-2.094;2023-03-23T08:30:46;99103.42;;;22.21;28.85
73242;BME280;65659;49.234;-2.094;2023-03-23T08:33:11;99096.63;;;22.60;28.69
73242;BME280;65659;49.234;-2.094;2023-03-23T08:35:37;99097.52;;;22.42;28.61
73242;BME280;65659;49.234;-2.094;2023-03-23T08:38:03;99097.68;;;22.48;28.56
73242;BME280;65659;49.234;-2.094;2023-03-23T08:40:29;99096.22;;;22.51;28.51
73242;BME280;65659;49.234;-2.094;2023-03-23T08:42:55;99105.87;;;22.65;28.37
73242;BME280;65659;49.234;-2.094;2023-03-23T08:45:22;99108.36;;;22.69;28.33
73242;BME280;65659;49.234;-2.094;2023-03-23T08:47:46;99101.65;;;22.48;28.30
73242;BME280;65659;49.234;-2.094;2023-03-23T08:50:14;99100.25;;;22.58;28.20
73242;BME280;65659;49.234;-2.094;2023-03-23T08:52:38;99095.49;;;22.70;28.07
73242;BME280;65659;49.234;-2.094;2023-03-23T08:55:03;99095.02;;;22.82;27.99
73242;BME280;65659;49.234;-2.094;2023-03-23T08:57:29;99097.24;;;22.57;27.96
73242;BME280;65659;49.234;-2.094;2023-03-23T08:59:55;99095.73;;;22.85;27.91
73242;BME280;65659;49.234;-2.094;2023-03-23T09:02:21;99098.15;;;22.54;27.97
73242;BME280;65659;49.234;-2.094;2023-03-23T09:04:46;99095.70;;;22.88;27.87
73242;BME280;65659;49.234;-2.094;2023-03-23T09:07:13;99098.34;;;22.97;27.78
73242;BME280;65659;49.234;-2.094;2023-03-23T09:09:38;99100.79;;;23.20;27.80
73242;BME280;65659;49.234;-2.094;2023-03-23T09:12:04;99102.37;;;22.69;27.84
73242;BME280;65659;49.234;-2.094;2023-03-23T09:14:30;99104.38;;;22.69;27.87
73242;BME280;65659;49.234;-2.094;2023-03-23T09:16:55;99112.25;;;22.71;27.85
73242;BME280;65659;49.234;-2.094;2023-03-23T09:19:21;99107.19;;;23.02;27.80
73242;BME280;65659;49.234;-2.094;2023-03-23T09:21:47;99099.46;;;23.09;27.75
73242;BME280;65659;49.234;-2.094;2023-03-23T09:24:13;99094.08;;;22.90;27.71
73242;BME280;65659;49.234;-2.094;2023-03-23T09:26:38;99086.45;;;23.00;27.63
73242;BME280;65659;49.234;-2.094;2023-03-23T09:29:04;99072.96;;;22.83;27.58
73242;BME280;65659;49.234;-2.094;2023-03-23T09:31:30;99075.25;;;23.13;27.55
73242;BME280;65659;49.234;-2.094;2023-03-23T09:33:57;99084.52;;;23.22;27.46
73242;BME280;65659;49.234;-2.094;2023-03-23T09:36:22;99084.70;;;23.25;27.39
73242;BME280;65659;49.234;-2.094;2023-03-23T09:38:47;99086.12;;;23.30;27.36
73242;BME280;65659;49.234;-2.094;2023-03-23T09:41:24;99088.09;;;23.39;27.34
73242;BME280;65659;49.234;-2.094;2023-03-23T09:43:49;99090.79;;;23.20;27.26
73242;BME280;65659;49.234;-2.094;2023-03-23T09:46:15;99089.42;;;23.52;27.20
73242;BME280;65659;49.234;-2.094;2023-03-23T09:48:38;99083.79;;;23.28;27.20
73242;BME280;65659;49.234;-2.094;2023-03-23T09:51:01;99089.84;;;23.04;27.23
73242;BME280;65659;49.234;-2.094;2023-03-23T09:53:24;99095.97;;;23.33;27.19
73242;BME280;65659;49.234;-2.094;2023-03-23T09:55:47;99094.80;;;23.16;27.16
73242;BME280;65659;49.234;-2.094;2023-03-23T09:58:18;99093.67;;;23.69;27.12
73242;BME280;65659;49.234;-2.094;2023-03-23T10:00:41;99094.77;;;23.27;27.04
73242;BME280;65659;49.234;-2.094;2023-03-23T10:03:10;99099.34;;;23.61;26.93
73242;BME280;65659;49.234;-2.094;2023-03-23T10:05:33;99103.24;;;23.47;26.86
73242;BME280;65659;49.234;-2.094;2023-03-23T10:07:56;99105.57;;;23.73;26.86
73242;BME280;65659;49.234;-2.094;2023-03-23T10:10:24;99099.24;;;23.46;26.94
73242;BME280;65659;49.234;-2.094;2023-03-23T10:12:54;99110.67;;;23.69;26.94
73242;BME280;65659;49.234;-2.094;2023-03-23T10:15:16;99109.72;;;23.76;26.86
73242;BME280;65659;49.234;-2.094;2023-03-23T10:17:46;99113.09;;;23.56;26.83
73242;BME280;65659;49.234;-2.094;2023-03-23T10:20:16;99116.30;;;23.55;26.85
73242;BME280;65659;49.234;-2.094;2023-03-23T10:22:34;99116.80;;;23.80;26.84
73242;BME280;65659;49.234;-2.094;2023-03-23T10:25:01;99123.00;;;23.56;26.87
73242;BME280;65659;49.234;-2.094;2023-03-23T10:27:28;99126.10;;;23.55;26.88
73242;BME280;65659;49.234;-2.094;2023-03-23T10:29:52;99127.26;;;23.81;26.86
73242;BME280;65659;49.234;-2.094;2023-03-23T10:32:16;99123.94;;;23.79;26.90
73242;BME280;65659;49.234;-2.094;2023-03-23T10:34:44;99123.67;;;23.60;26.85
73242;BME280;65659;49.234;-2.094;2023-03-23T10:37:08;99118.88;;;23.62;26.82
73242;BME280;65659;49.234;-2.094;2023-03-23T10:39:38;99118.04;;;23.82;26.88
73242;BME280;65659;49.234;-2.094;2023-03-23T10:41:55;99115.23;;;23.81;26.92
73242;BME280;65659;49.234;-2.094;2023-03-23T10:44:24;99114.22;;;23.77;26.95
73242;BME280;65659;49.234;-2.094;2023-03-23T10:46:54;99104.87;;;23.82;26.93
73242;BME280;65659;49.234;-2.094;2023-03-23T10:49:16;99104.24;;;23.60;26.91
73242;BME280;65659;49.234;-2.094;2023-03-23T10:51:42;99098.78;;;23.72;26.78
73242;BME280;65659;49.234;-2.094;2023-03-23T10:54:05;99089.79;;;23.75;26.76
73242;BME280;65659;49.234;-2.094;2023-03-23T10:56:38;99086.76;;;23.79;26.70
73242;BME280;65659;49.234;-2.094;2023-03-23T10:58:56;99089.97;;;23.74;26.77
73242;BME280;65659;49.234;-2.094;2023-03-23T11:01:31;99085.10;;;23.80;26.76
73242;BME280;65659;49.234;-2.094;2023-03-23T11:03:48;99084.27;;;24.09;26.71
73242;BME280;65659;49.234;-2.094;2023-03-23T11:06:19;99088.43;;;23.87;26.72
73242;BME280;65659;49.234;-2.094;2023-03-23T11:08:48;99075.70;;;24.17;26.78
73242;BME280;65659;49.234;-2.094;2023-03-23T11:11:11;99077.23;;;24.02;26.82
73242;BME280;65659;49.234;-2.094;2023-03-23T11:13:31;99069.25;;;23.99;26.99
73242;BME280;65659;49.234;-2.094;2023-03-23T11:15:56;99070.89;;;23.98;27.03
73242;BME280;65659;49.234;-2.094;2023-03-23T11:18:23;99075.86;;;24.12;26.98
73242;BME280;65659;49.234;-2.094;2023-03-23T11:20:49;99087.39;;;24.46;26.95
73242;BME280;65659;49.234;-2.094;2023-03-23T11:23:19;99078.07;;;24.31;26.90
73242;BME280;65659;49.234;-2.094;2023-03-23T11:25:53;99072.04;;;24.22;27.08
73242;BME280;65659;49.234;-2.094;2023-03-23T11:28:04;99075.17;;;24.30;27.07
73242;BME280;65659;49.234;-2.094;2023-03-23T11:30:30;99072.83;;;24.37;27.05
73242;BME280;65659;49.234;-2.094;2023-03-23T11:32:59;99070.66;;;24.34;27.14
73242;BME280;65659;49.234;-2.094;2023-03-23T11:35:23;99073.77;;;24.11;27.12
73242;BME280;65659;49.234;-2.094;2023-03-23T11:37:50;99081.19;;;24.25;27.25
73242;BME280;65659;49.234;-2.094;2023-03-23T11:40:18;99090.68;;;24.20;27.34
73242;BME280;65659;49.234;-2.094;2023-03-23T11:42:44;99075.43;;;24.23;27.32
73242;BME280;65659;49.234;-2.094;2023-03-23T11:45:15;99069.40;;;24.24;27.38
73242;BME280;65659;49.234;-2.094;2023-03-23T11:47:34;99055.98;;;24.21;27.43
73242;BME280;65659;49.234;-2.094;2023-03-23T11:50:03;99044.09;;;24.21;27.50
73242;BME280;65659;49.234;-2.094;2023-03-23T11:52:29;99031.58;;;24.45;27.55
73242;BME280;65659;49.234;-2.094;2023-03-23T11:54:54;99028.05;;;24.25;27.49
73242;BME280;65659;49.234;-2.094;2023-03-23T11:57:12;99037.49;;;24.30;27.44
73242;BME280;65659;49.234;-2.094;2023-03-23T11:59:38;99023.86;;;24.36;27.48
73242;BME280;65659;49.234;-2.094;2023-03-23T12:04:44;99017.51;;;24.36;27.47
73242;BME280;65659;49.234;-2.094;2023-03-23T12:07:04;99012.90;;;24.38;27.28
73242;BME280;65659;49.234;-2.094;2023-03-23T12:09:36;99006.37;;;24.32;27.53
73242;BME280;65659;49.234;-2.094;2023-03-23T12:11:55;99016.51;;;24.42;27.53
73242;BME280;65659;49.234;-2.094;2023-03-23T12:14:19;99014.65;;;24.53;27.34
73242;BME280;65659;49.234;-2.094;2023-03-23T12:16:48;99018.29;;;24.52;27.35
73242;BME280;65659;49.234;-2.094;2023-03-23T12:19:10;99021.70;;;24.56;27.18
73242;BME280;65659;49.234;-2.094;2023-03-23T12:21:36;99021.33;;;24.51;27.32
73242;BME280;65659;49.234;-2.094;2023-03-23T12:24:03;99023.35;;;24.55;27.35
73242;BME280;65659;49.234;-2.094;2023-03-23T12:26:23;99015.06;;;24.30;27.44
73242;BME280;65659;49.234;-2.094;2023-03-23T12:28:59;99014.97;;;24.59;27.35
73242;BME280;65659;49.234;-2.094;2023-03-23T12:31:18;99011.61;;;24.17;27.23
73242;BME280;65659;49.234;-2.094;2023-03-23T12:33:50;99005.06;;;24.58;27.29
73242;BME280;65659;49.234;-2.094;2023-03-23T12:36:11;98999.69;;;24.55;27.45
73242;BME280;65659;49.234;-2.094;2023-03-23T12:38:44;98994.00;;;24.45;27.36
73242;BME280;65659;49.234;-2.094;2023-03-23T12:41:05;98990.67;;;24.37;27.72
73242;BME280;65659;49.234;-2.094;2023-03-23T12:43:27;98993.17;;;24.16;27.45
73242;BME280;65659;49.234;-2.094;2023-03-23T12:45:57;98989.58;;;24.38;27.57
73242;BME280;65659;49.234;-2.094;2023-03-23T12:48:14;98989.43;;;24.24;27.69